SBAT

Alta Floresta Airport

Alta Floresta, Brazil
TAF SBAT 190400Z 1906/1918 00000KT CAVOK TN24/1911Z TX34/1918Z BECMG 1911/1913 03005KT BECMG 1915/1917 09005KT SCT030 FEW035TCU RMK PEH
Issued Valid From Valid To
Oct-19 @ 04:00 UTC
(6 hours ago)
Oct-19 @ 06:00 UTC
(4 hours ago)
Oct-19 @ 18:00 UTC
(in 8 hours)
Oct-19 @ 06:00 to Oct-19 @ 11:00
TAF SBAT 190400Z 1906/1918 00000KT CAVOK TN24/1911Z TX34/1918Z
Visibility Clouds
10,000+ meters
  • No significant clouds
Becoming Oct-19 @ 11:00 to Oct-19 @ 15:00
BECMG 1911/1913 03005KT
Wind Visibility Clouds
30° at 5 knots 10,000+ meters
  • No significant clouds
Becoming Oct-19 @ 15:00 to Oct-19 @ 18:00
BECMG 1915/1917 09005KT SCT030 FEW035TCU RMK PEH
Wind Visibility Clouds
90° at 5 knots 10,000+ meters
  • Scattered at 3,000' AGL
  • Few at 3,500' AGL
TAF SBAT 190400Z 1906/1918 00000KT CAVOK TN24/1911Z TX34/1918Z BECMG 1911/1913 03005KT BECMG 1915/1917 09005KT SCT030 FEW035TCU RMK PEH
Issued Oct-19 @ 04:00 UTC
(6 hours ago)
Valid From Oct-19 @ 06:00 UTC
(4 hours ago)
Valid To Oct-19 @ 18:00 UTC
(in 8 hours)
Oct-19 @ 06:00 - Oct-19 @ 11:00
Clouds
  • No significant clouds
Becoming Oct-19 @ 11:00 - Oct-19 @ 15:00
Wind Visibility
30° at 5 knots 10,000+ meters
Clouds
  • No significant clouds
Becoming Oct-19 @ 15:00 - Oct-19 @ 18:00
Wind Visibility
90° at 5 knots 10,000+ meters
Clouds
  • Scattered at 3,000' AGL
  • Few at 3,500' AGL